KDYS/DYS METAR and TAF weather

Enter ICAO airport designator
Station Type Date Time Source
KDYS METAR 2019/02/23 22:56 UTC NOAA

KDYS 232256Z 28019G24KT 5SM BLDU CLR 17/M09 A2994 RMK AO2A PK WND 29036/07 SLP121 T01741087 $


Station Type Date Time Source
KDYS Decoded METAR 2019/02/23 22:56 UTC NOAA

Abilene, Dyess Air Force Base, TX, United States (KDYS) 32-25-12N 099-51-25W
Feb 23, 2019 - 05:56 PM EST / 2019.02.23 2256 UTC
Wind: from the W (280 degrees) at 22 MPH (19 KT) gusting to 28 MPH (24 KT):0
Visibility: 5 mile(s):0
Sky conditions: clear
Weather: blowing widespread dust
Temperature: 63.3 F (17.4 C)
Dew Point: 16.3 F (-8.7 C)
Relative Humidity: 15%
Pressure (altimeter): 29.94 in. Hg (1013 hPa)
ob: KDYS 232256Z 28019G24KT 5SM BLDU CLR 17/M09 A2994 RMK AO2A PK WND 29036/07 SLP121 T01741087
cycle: 23

Station Type Date Time Source
KDYS TAF 2019/02/23 17:12 UTC NOAA

TAF KDYS 231700Z 2317/2423 25020G35KT 9999 SKC 510002 QNH2980INS
TEMPO 2318/2322 26035G50KT 4800 BLDU SKC 530002
BECMG 2323/2324 31015G25KT 9999 SKC QNH2993INS
BECMG 2402/2403 35009KT 9999 SKC QNH3005INS
BECMG 2411/2412 VRB06KT 9999 SKC QNH3020INS TX19/2321Z TN00/2409Z


Example: see airport list